Berlin, New Hampshire
Current Conditions -  °F | °C
As of 11:52 AM on Friday 24 Oct 2014 (Local Time) from KBML Reporting Station
Haze Haze  
Wind Chill: 44°   Ceiling: 1200
Heat Index: 46°   Visibility: 4mi
Dew Point: 44°   Wind: 5mph
Humidity: 93%   Direction: 330°NNW
Pressure: 29.75"   Gusts: NA
Location:  44.47°N, 71.18°W
Report Text: KBML 241552Z AUTO 33004KT 4SM BR BKN012 OVC017 08/07 A2975 RMK AO2 RAE11 SLP081 P0000 T00780067
Loading
Personal Weather Stations






























Interactive Weather Map New forecast layout! Learn more

10-Day Weather Forecast

Advertisements
Track Severe Weather on mobile